createdAt,value
2022-12-12T00:00:48.057Z,96.11
2022-12-12T00:01:47.819Z,96.11
2022-12-12T00:02:47.881Z,96.22
2022-12-12T00:03:47.920Z,96.22
2022-12-12T00:04:47.767Z,96.33
2022-12-12T00:05:47.979Z,96.33
2022-12-12T00:06:47.747Z,96.43
2022-12-12T00:07:47.777Z,96.43
2022-12-12T00:08:47.949Z,96.43
2022-12-12T00:09:47.758Z,96.53
2022-12-12T00:10:47.940Z,96.53
2022-12-12T00:11:47.686Z,96.53
2022-12-12T00:12:47.699Z,96.64
2022-12-12T00:13:47.883Z,96.53
2022-12-12T00:14:47.655Z,96.53
2022-12-12T00:15:47.650Z,96.43
2022-12-12T00:16:47.834Z,96.33
2022-12-12T00:17:47.603Z,96.33
2022-12-12T00:18:47.595Z,96.33
2022-12-12T00:19:47.594Z,96.22
2022-12-12T00:20:47.572Z,96.22
2022-12-12T00:21:47.773Z,96.22
2022-12-12T00:22:47.552Z,96.11
2022-12-12T00:23:47.540Z,96.01
2022-12-12T00:24:47.521Z,96.01
2022-12-12T00:25:47.512Z,95.90
2022-12-12T00:26:47.711Z,95.90
2022-12-12T00:27:47.504Z,95.90
2022-12-12T00:28:47.471Z,95.90
2022-12-12T00:29:47.464Z,95.80
2022-12-12T00:30:47.493Z,95.90
2022-12-12T00:31:47.650Z,95.90
2022-12-12T00:32:47.422Z,96.01
2022-12-12T00:33:47.409Z,96.11
2022-12-12T00:34:47.405Z,96.11
2022-12-12T00:35:47.389Z,96.22
2022-12-12T00:36:47.398Z,96.22
2022-12-12T00:37:47.370Z,96.22
2022-12-12T00:38:47.347Z,96.33
2022-12-12T00:39:47.549Z,96.33
2022-12-12T00:40:47.338Z,96.43
2022-12-12T00:41:47.319Z,96.43
2022-12-12T00:42:47.302Z,96.43
2022-12-12T00:43:47.296Z,96.43
2022-12-12T00:44:47.467Z,96.33
2022-12-12T00:45:47.264Z,96.43
2022-12-12T00:46:47.309Z,96.33
2022-12-12T00:47:47.447Z,96.33
2022-12-12T00:48:47.228Z,96.33
2022-12-12T00:49:47.214Z,96.33
2022-12-12T00:50:47.198Z,96.43
2022-12-12T00:51:47.396Z,96.43
2022-12-12T00:52:47.184Z,96.43
2022-12-12T00:53:47.187Z,96.43
2022-12-12T00:54:47.145Z,96.43
2022-12-12T00:55:47.142Z,96.53
2022-12-12T00:56:47.138Z,96.53
2022-12-12T00:57:47.298Z,96.53
2022-12-12T00:58:47.104Z,96.64
2022-12-12T00:59:47.083Z,96.64
2022-12-12T01:00:47.082Z,96.64
2022-12-12T01:01:47.122Z,96.74
2022-12-12T01:02:47.286Z,96.74
2022-12-12T01:03:47.035Z,96.74
2022-12-12T01:04:47.077Z,96.84
2022-12-12T01:05:47.201Z,96.84
2022-12-12T01:06:47.003Z,96.84
2022-12-12T01:07:47.069Z,96.95
2022-12-12T01:08:46.972Z,96.95
2022-12-12T01:09:46.964Z,97.05
2022-12-12T01:10:47.139Z,97.05
2022-12-12T01:11:46.948Z,97.05
2022-12-12T01:12:46.942Z,97.05
2022-12-12T01:13:46.913Z,97.05
2022-12-12T01:14:47.370Z,97.05
2022-12-12T01:15:46.937Z,96.95
2022-12-12T01:16:46.888Z,96.95
2022-12-12T01:17:46.867Z,96.95
2022-12-12T01:18:47.058Z,96.95
2022-12-12T01:19:46.848Z,96.95
2022-12-12T01:20:46.906Z,96.95
2022-12-12T01:21:46.828Z,96.95
2022-12-12T01:22:46.810Z,96.95
2022-12-12T01:23:47.007Z,96.95
2022-12-12T01:24:46.786Z,96.84
2022-12-12T01:25:46.978Z,96.84
2022-12-12T01:26:46.755Z,96.84
2022-12-12T01:27:46.745Z,96.84
2022-12-12T01:28:46.748Z,96.95
2022-12-12T01:29:46.707Z,96.95
2022-12-12T01:30:46.945Z,96.95
2022-12-12T01:31:46.721Z,96.95
2022-12-12T01:32:46.755Z,97.05
2022-12-12T01:33:46.889Z,97.05
2022-12-12T01:34:46.676Z,97.05
2022-12-12T01:35:46.855Z,97.16
2022-12-12T01:36:46.632Z,97.16
2022-12-12T01:37:46.622Z,97.27
2022-12-12T01:38:46.823Z,97.27
2022-12-12T01:39:46.622Z,97.27
2022-12-12T01:40:46.804Z,97.37
2022-12-12T01:41:46.569Z,97.37
2022-12-12T01:42:46.553Z,97.37
2022-12-12T01:43:46.548Z,97.37
2022-12-12T01:44:46.523Z,97.37
2022-12-12T01:45:46.721Z,97.37
2022-12-12T01:46:46.577Z,97.37
2022-12-12T01:47:46.504Z,97.47
2022-12-12T01:48:46.471Z,97.47
2022-12-12T01:49:46.479Z,97.47
2022-12-12T01:50:46.493Z,97.58
2022-12-12T01:51:46.657Z,97.58
2022-12-12T01:52:46.445Z,97.68
2022-12-12T01:53:46.418Z,97.68
2022-12-12T01:54:46.410Z,97.68
2022-12-12T01:55:46.396Z,97.68
2022-12-12T01:56:46.693Z,97.68
2022-12-12T01:57:46.377Z,97.68
2022-12-12T01:58:46.348Z,97.78
2022-12-12T01:59:46.387Z,97.78
2022-12-12T02:00:46.358Z,97.78
2022-12-12T02:01:46.410Z,97.78
2022-12-12T02:02:46.331Z,97.78
2022-12-12T02:03:46.303Z,97.78
2022-12-12T02:04:46.292Z,97.83
2022-12-12T02:05:46.273Z,97.78
2022-12-12T02:06:46.257Z,97.89
2022-12-12T02:07:46.501Z,97.89
2022-12-12T02:08:46.227Z,97.99
2022-12-12T02:09:46.474Z,97.99
2022-12-12T02:10:46.404Z,97.99
2022-12-12T02:11:46.204Z,97.99
2022-12-12T02:12:46.173Z,97.99
2022-12-12T02:13:46.180Z,97.99
2022-12-12T02:14:46.425Z,97.99
2022-12-12T02:15:46.155Z,97.99
2022-12-12T02:16:46.132Z,97.94
2022-12-12T02:17:46.123Z,97.94
2022-12-12T02:18:46.113Z,97.94
2022-12-12T02:19:46.292Z,97.94
2022-12-12T02:20:46.071Z,97.83
2022-12-12T02:21:46.097Z,97.72
2022-12-12T02:22:46.061Z,97.72
2022-12-12T02:23:46.067Z,97.62
2022-12-12T02:24:46.031Z,97.72
2022-12-12T02:25:46.268Z,97.72
2022-12-12T02:26:46.009Z,97.72
2022-12-12T02:27:45.989Z,97.68
2022-12-12T02:28:45.990Z,97.68
2022-12-12T02:29:45.969Z,97.68
2022-12-12T02:30:46.178Z,97.78
2022-12-12T02:31:45.991Z,97.68
2022-12-12T02:32:45.938Z,97.58
2022-12-12T02:33:45.928Z,97.47
2022-12-12T02:34:45.907Z,97.41
2022-12-12T02:35:46.138Z,97.27
2022-12-12T02:36:45.878Z,97.27
2022-12-12T02:37:45.876Z,97.31
2022-12-12T02:38:45.864Z,97.16
2022-12-12T02:39:45.850Z,97.16
2022-12-12T02:40:46.036Z,97.16
2022-12-12T02:41:45.816Z,97.16
2022-12-12T02:42:45.806Z,97.16
2022-12-12T02:43:45.806Z,97.16
2022-12-12T02:44:45.795Z,97.16
2022-12-12T02:45:45.768Z,97.16
2022-12-12T02:46:45.815Z,97.16
2022-12-12T02:47:45.754Z,97.16
2022-12-12T02:48:45.736Z,97.16
2022-12-12T02:49:45.724Z,97.16
2022-12-12T02:50:45.704Z,97.05
2022-12-12T02:51:45.724Z,96.95
2022-12-12T02:52:45.674Z,96.89
2022-12-12T02:53:45.886Z,96.78
2022-12-12T02:54:45.654Z,96.68
2022-12-12T02:55:45.663Z,96.58
2022-12-12T02:56:45.637Z,96.58
2022-12-12T02:57:45.622Z,96.58
2022-12-12T02:58:45.823Z,96.58
2022-12-12T02:59:45.611Z,96.58
2022-12-12T03:00:45.602Z,96.68
2022-12-12T03:01:45.614Z,96.64
2022-12-12T03:02:45.760Z,96.68
2022-12-12T03:03:45.550Z,96.53
2022-12-12T03:04:45.540Z,96.58
2022-12-12T03:05:45.533Z,96.58
2022-12-12T03:06:45.730Z,96.58
2022-12-12T03:07:45.809Z,96.53
2022-12-12T03:08:45.490Z,96.53
2022-12-12T03:09:45.480Z,96.53
2022-12-12T03:10:45.458Z,96.53
2022-12-12T03:11:45.682Z,96.64
2022-12-12T03:12:45.436Z,96.64
2022-12-12T03:13:45.430Z,96.64
2022-12-12T03:14:45.424Z,96.64
2022-12-12T03:15:45.400Z,96.64
2022-12-12T03:16:45.393Z,96.68
2022-12-12T03:17:45.596Z,96.58
2022-12-12T03:18:45.567Z,96.58
2022-12-12T03:19:45.345Z,96.58
2022-12-12T03:20:45.327Z,96.58
2022-12-12T03:21:45.329Z,96.58
2022-12-12T03:22:45.517Z,96.58
2022-12-12T03:23:45.307Z,96.58
2022-12-12T03:24:45.284Z,96.53
2022-12-12T03:25:45.294Z,96.58
2022-12-12T03:26:45.254Z,96.58
2022-12-12T03:27:45.474Z,96.47
2022-12-12T03:28:45.225Z,96.47
2022-12-12T03:29:45.259Z,96.47
2022-12-12T03:30:45.217Z,96.47
2022-12-12T03:31:45.246Z,96.47
2022-12-12T03:32:45.405Z,96.37
2022-12-12T03:33:45.194Z,96.37
2022-12-12T03:34:45.371Z,96.37
2022-12-12T03:35:45.154Z,96.37
2022-12-12T03:36:45.142Z,96.26
2022-12-12T03:37:45.322Z,96.26
2022-12-12T03:38:45.102Z,96.26
2022-12-12T03:39:45.100Z,96.26
2022-12-12T03:40:45.080Z,96.26
2022-12-12T03:41:45.100Z,96.26
2022-12-12T03:42:45.058Z,96.37
2022-12-12T03:43:45.050Z,96.37
2022-12-12T03:44:45.040Z,96.33
2022-12-12T03:45:45.280Z,96.37
2022-12-12T03:46:45.009Z,96.37
2022-12-12T03:47:45.001Z,96.43
2022-12-12T03:48:44.989Z,96.47
2022-12-12T03:49:44.988Z,96.43
2022-12-12T03:50:45.171Z,96.58
2022-12-12T03:51:44.947Z,96.53
2022-12-12T03:52:45.158Z,96.64
2022-12-12T03:53:44.936Z,96.74
2022-12-12T03:54:44.926Z,96.74
2022-12-12T03:55:45.087Z,96.84
2022-12-12T03:56:44.886Z,96.84
2022-12-12T03:57:44.878Z,96.95
2022-12-12T03:58:44.895Z,96.95
2022-12-12T03:59:44.856Z,96.95
2022-12-12T04:00:44.874Z,96.95
2022-12-12T04:01:44.824Z,96.95
2022-12-12T04:02:44.915Z,96.95
2022-12-12T04:03:44.795Z,96.95
2022-12-12T04:04:44.795Z,96.95
2022-12-12T04:05:44.778Z,97.00
2022-12-12T04:06:44.754Z,97.00
2022-12-12T04:07:45.141Z,97.00
2022-12-12T04:08:44.943Z,97.00
2022-12-12T04:09:44.725Z,97.00
2022-12-12T04:10:44.712Z,97.00
2022-12-12T04:11:44.694Z,97.00
2022-12-12T04:12:44.721Z,97.00
2022-12-12T04:13:44.891Z,97.00
2022-12-12T04:14:44.663Z,97.00
2022-12-12T04:15:44.670Z,97.00
2022-12-12T04:16:44.667Z,97.00
2022-12-12T04:17:44.831Z,97.00
2022-12-12T04:18:44.645Z,97.00
2022-12-12T04:19:44.638Z,97.00
2022-12-12T04:20:44.592Z,96.89
2022-12-12T04:21:44.605Z,96.89
2022-12-12T04:22:44.770Z,96.89
2022-12-12T04:23:44.768Z,96.89
2022-12-12T04:24:44.556Z,96.89
2022-12-12T04:25:44.720Z,96.78
2022-12-12T04:26:44.517Z,96.78
2022-12-12T04:27:44.503Z,96.89
2022-12-12T04:28:44.490Z,96.89
2022-12-12T04:29:44.468Z,96.89
2022-12-12T04:30:44.687Z,96.89
2022-12-12T04:31:44.523Z,96.89
2022-12-12T04:32:44.441Z,96.89
2022-12-12T04:33:44.418Z,96.89
2022-12-12T04:34:44.436Z,96.89
2022-12-12T04:35:44.617Z,96.89
2022-12-12T04:36:44.395Z,96.89
2022-12-12T04:37:44.393Z,96.89
2022-12-12T04:38:44.366Z,96.78
2022-12-12T04:39:44.355Z,96.68
2022-12-12T04:40:44.564Z,96.68
2022-12-12T04:41:44.324Z,96.68
2022-12-12T04:42:44.320Z,96.68
2022-12-12T04:43:44.306Z,96.68
2022-12-12T04:44:44.487Z,96.68
2022-12-12T04:45:44.289Z,96.58
2022-12-12T04:46:44.268Z,96.68
2022-12-12T04:47:44.255Z,96.68
2022-12-12T04:48:44.377Z,96.68
2022-12-12T04:49:44.431Z,96.68
2022-12-12T04:50:44.215Z,96.68
2022-12-12T04:51:44.193Z,96.78
2022-12-12T04:52:44.191Z,96.78
2022-12-12T04:53:44.180Z,96.78
2022-12-12T04:54:44.170Z,96.78
2022-12-12T04:55:44.341Z,96.89
2022-12-12T04:56:44.146Z,96.89
2022-12-12T04:57:44.124Z,96.89
2022-12-12T04:58:44.120Z,96.89
2022-12-12T04:59:44.118Z,96.89
2022-12-12T05:00:44.097Z,97.00
2022-12-12T05:01:48.187Z,97.00
2022-12-12T05:02:45.128Z,97.00
2022-12-12T05:03:44.059Z,97.00
2022-12-12T05:04:44.248Z,97.10
2022-12-12T05:05:44.248Z,97.10
2022-12-12T05:06:44.025Z,97.10
2022-12-12T05:07:44.007Z,97.10
2022-12-12T05:08:43.994Z,97.10
2022-12-12T05:09:43.988Z,97.20
2022-12-12T05:10:44.178Z,97.20
2022-12-12T05:11:43.947Z,97.20
2022-12-12T05:12:44.173Z,97.20
2022-12-12T05:13:43.926Z,97.20
2022-12-12T05:14:43.925Z,97.20
2022-12-12T05:15:45.115Z,97.20
2022-12-12T05:16:44.146Z,97.20
2022-12-12T05:17:43.878Z,97.20
2022-12-12T05:18:43.875Z,97.20
2022-12-12T05:19:44.070Z,97.20
2022-12-12T05:20:43.843Z,97.10
2022-12-12T05:21:44.043Z,97.10
2022-12-12T05:22:43.831Z,97.00
2022-12-12T05:23:43.808Z,97.00
2022-12-12T05:24:43.983Z,97.00
2022-12-12T05:25:43.785Z,97.00
2022-12-12T05:26:43.784Z,97.00
2022-12-12T05:27:43.963Z,97.00
2022-12-12T05:28:43.742Z,97.00
2022-12-12T05:29:43.731Z,97.00
2022-12-12T05:30:43.799Z,97.00
2022-12-12T05:31:43.723Z,97.00
2022-12-12T05:32:43.729Z,97.00
2022-12-12T05:33:43.682Z,97.14
2022-12-12T05:34:43.680Z,97.14
2022-12-12T05:35:43.660Z,97.14
2022-12-12T05:36:43.661Z,97.14
2022-12-12T05:37:48.193Z,97.14
2022-12-12T05:38:44.649Z,97.14
2022-12-12T05:39:43.619Z,97.14
2022-12-12T05:40:43.599Z,97.14
2022-12-12T05:41:43.580Z,97.25
2022-12-12T05:42:43.597Z,97.25
2022-12-12T05:43:43.569Z,97.25
2022-12-12T05:44:43.557Z,97.25
2022-12-12T05:45:43.763Z,97.25
2022-12-12T05:46:43.529Z,97.25
2022-12-12T05:47:43.537Z,97.25
2022-12-12T05:48:43.497Z,97.25
2022-12-12T05:49:43.487Z,97.25
2022-12-12T05:50:43.484Z,97.35
2022-12-12T05:51:43.466Z,97.35
2022-12-12T05:52:43.460Z,97.35
2022-12-12T05:53:43.455Z,97.35
2022-12-12T05:54:43.424Z,97.45
2022-12-12T05:55:43.405Z,97.45
2022-12-12T05:56:43.408Z,97.45
2022-12-12T05:57:44.125Z,97.45
2022-12-12T05:58:43.385Z,97.45
2022-12-12T05:59:43.364Z,97.45
2022-12-12T06:00:43.344Z,97.56
2022-12-12T06:01:43.357Z,97.56
2022-12-12T06:02:43.642Z,97.56
2022-12-12T06:03:43.317Z,97.61
2022-12-12T06:04:43.292Z,97.67
2022-12-12T06:05:43.291Z,97.71
2022-12-12T06:06:43.272Z,97.71
2022-12-12T06:07:43.464Z,97.81
2022-12-12T06:08:43.288Z,97.81
2022-12-12T06:09:43.232Z,97.81
2022-12-12T06:10:43.221Z,97.81
2022-12-12T06:11:43.220Z,97.81
2022-12-12T06:12:43.209Z,97.92
2022-12-12T06:13:43.390Z,97.92
2022-12-12T06:14:43.180Z,98.02
2022-12-12T06:15:43.217Z,98.02
2022-12-12T06:16:43.159Z,98.02
2022-12-12T06:17:43.145Z,98.13
2022-12-12T06:18:43.369Z,98.13
2022-12-12T06:19:43.116Z,98.13
2022-12-12T06:20:43.098Z,98.13
2022-12-12T06:21:43.096Z,98.13
2022-12-12T06:22:43.069Z,98.13
2022-12-12T06:23:43.090Z,98.13
2022-12-12T06:24:43.047Z,98.13
2022-12-12T06:25:43.044Z,98.24
2022-12-12T06:26:43.025Z,98.24
2022-12-12T06:27:43.016Z,98.24
2022-12-12T06:28:43.037Z,98.24
2022-12-12T06:29:42.995Z,98.24
2022-12-12T06:30:43.045Z,98.24
2022-12-12T06:31:43.003Z,98.24
2022-12-12T06:32:42.955Z,98.24
2022-12-12T06:33:42.948Z,98.24
2022-12-12T06:34:43.127Z,98.24
2022-12-12T06:35:42.915Z,98.34
2022-12-12T06:36:42.898Z,98.34
2022-12-12T06:37:42.895Z,98.34
2022-12-12T06:38:43.073Z,98.34
2022-12-12T06:39:42.864Z,98.34
2022-12-12T06:40:42.920Z,98.34
2022-12-12T06:41:43.054Z,98.34
2022-12-12T06:42:47.902Z,98.34
2022-12-12T06:43:43.812Z,98.49
2022-12-12T06:44:43.023Z,98.49
2022-12-12T06:45:42.792Z,98.49
2022-12-12T06:46:43.787Z,98.49
2022-12-12T06:47:42.770Z,98.49
2022-12-12T06:48:42.979Z,98.49
2022-12-12T06:49:42.743Z,98.49
2022-12-12T06:50:42.731Z,98.49
2022-12-12T06:51:42.722Z,98.49
2022-12-12T06:52:42.711Z,98.49
2022-12-12T06:53:42.911Z,98.49
2022-12-12T06:54:42.881Z,98.49
2022-12-12T06:55:42.663Z,98.49
2022-12-12T06:56:48.012Z,98.54
2022-12-12T06:57:43.648Z,98.54
2022-12-12T06:58:42.840Z,98.54
2022-12-12T06:59:42.637Z,98.54
2022-12-12T07:00:42.628Z,98.64
2022-12-12T07:01:42.686Z,98.64
2022-12-12T07:02:42.615Z,98.64
2022-12-12T07:03:42.574Z,98.64
2022-12-12T07:04:42.800Z,98.64
2022-12-12T07:05:42.548Z,98.74
2022-12-12T07:06:42.535Z,98.74
2022-12-12T07:07:42.516Z,98.74
2022-12-12T07:08:42.519Z,98.85
2022-12-12T07:09:42.705Z,98.85
2022-12-12T07:10:42.484Z,98.95
2022-12-12T07:11:42.467Z,99.00
2022-12-12T07:12:46.595Z,99.00
2022-12-12T07:13:43.446Z,99.00
2022-12-12T07:14:42.433Z,99.00
2022-12-12T07:15:42.756Z,99.00
2022-12-12T07:16:43.227Z,99.00
2022-12-12T07:17:42.393Z,99.10
2022-12-12T07:18:42.383Z,99.10
2022-12-12T07:19:42.564Z,99.10
2022-12-12T07:20:42.360Z,99.00
2022-12-12T07:21:42.342Z,99.00
2022-12-12T07:22:42.392Z,99.04
2022-12-12T07:23:42.329Z,99.04
2022-12-12T07:24:42.316Z,99.04
2022-12-12T07:25:42.543Z,99.04
2022-12-12T07:26:42.307Z,99.15
2022-12-12T07:27:42.272Z,99.15
2022-12-12T07:28:42.266Z,99.15
2022-12-12T07:29:42.270Z,99.15
2022-12-12T07:30:42.325Z,99.15
2022-12-12T07:31:42.439Z,99.25
2022-12-12T07:32:42.211Z,99.25
2022-12-12T07:33:44.497Z,99.35
2022-12-12T07:34:42.208Z,99.35
2022-12-12T07:35:42.169Z,99.46
2022-12-12T07:36:42.167Z,99.46
2022-12-12T07:37:42.148Z,99.57
2022-12-12T07:38:42.138Z,99.57
2022-12-12T07:39:42.153Z,99.71
2022-12-12T07:40:42.117Z,99.71
2022-12-12T07:41:42.092Z,99.82
2022-12-12T07:42:42.101Z,99.82
2022-12-12T07:43:44.119Z,99.93
2022-12-12T07:44:42.315Z,99.93
2022-12-12T07:45:42.045Z,99.93
2022-12-12T07:46:42.117Z,99.99
2022-12-12T07:47:42.019Z,99.99
2022-12-12T07:48:42.029Z,99.99
2022-12-12T07:49:41.995Z,99.99
2022-12-12T07:50:42.005Z,99.99
2022-12-12T07:51:48.587Z,99.99
2022-12-12T07:52:42.964Z,99.99
2022-12-12T07:53:41.944Z,99.99
2022-12-12T07:54:41.935Z,99.99
2022-12-12T07:55:42.115Z,99.99
2022-12-12T07:56:41.913Z,99.99
2022-12-12T07:57:41.922Z,99.99
2022-12-12T07:58:41.886Z,99.99
2022-12-12T07:59:41.873Z,99.99
2022-12-12T08:00:41.873Z,99.99
2022-12-12T08:01:41.922Z,99.99
2022-12-12T08:02:41.860Z,99.99
2022-12-12T08:03:41.824Z,99.99
2022-12-12T08:04:41.894Z,99.99
2022-12-12T08:05:42.010Z,99.99
2022-12-12T08:06:41.792Z,99.99
2022-12-12T08:07:41.879Z,99.99
2022-12-12T08:08:41.773Z,99.99
2022-12-12T08:09:41.750Z,99.99
2022-12-12T08:10:42.008Z,99.99
2022-12-12T08:11:46.088Z,99.99
2022-12-12T08:12:41.714Z,99.99
2022-12-12T08:13:41.696Z,99.99
2022-12-12T08:14:41.688Z,99.99
2022-12-12T08:15:41.874Z,99.99
2022-12-12T08:16:41.657Z,99.99
2022-12-12T08:17:41.648Z,99.99
2022-12-12T08:18:41.648Z,99.99
2022-12-12T08:19:41.616Z,99.99
2022-12-12T08:20:41.816Z,99.99
2022-12-12T08:21:41.596Z,99.99
2022-12-12T08:22:41.596Z,99.99
2022-12-12T08:23:41.573Z,99.99
2022-12-12T08:24:41.787Z,99.99
2022-12-12T08:25:41.566Z,99.99
2022-12-12T08:26:41.544Z,99.99
2022-12-12T08:27:41.546Z,99.99
2022-12-12T08:28:41.754Z,99.99
2022-12-12T08:29:41.503Z,99.99
2022-12-12T08:30:41.694Z,99.99
2022-12-12T08:31:41.534Z,99.99
2022-12-12T08:32:41.464Z,99.99
2022-12-12T08:33:41.444Z,99.99
2022-12-12T08:34:41.733Z,99.99
2022-12-12T08:35:41.701Z,99.99
2022-12-12T08:36:41.426Z,99.99
2022-12-12T08:37:41.401Z,99.99
2022-12-12T08:38:41.403Z,99.99
2022-12-12T08:39:41.571Z,99.99
2022-12-12T08:40:41.390Z,99.99
2022-12-12T08:41:41.561Z,99.99
2022-12-12T08:42:41.343Z,99.99
2022-12-12T08:43:41.321Z,99.99
2022-12-12T08:44:41.554Z,99.99
2022-12-12T08:45:41.299Z,99.99
2022-12-12T08:46:41.618Z,99.99
2022-12-12T08:47:41.271Z,99.99
2022-12-12T08:48:41.269Z,99.99
2022-12-12T08:49:41.477Z,99.99
2022-12-12T08:50:41.252Z,99.99
2022-12-12T08:51:41.228Z,99.99
2022-12-12T08:52:41.227Z,99.99
2022-12-12T08:53:41.215Z,99.99
2022-12-12T08:54:41.197Z,99.99
2022-12-12T08:55:41.408Z,99.99
2022-12-12T08:56:41.398Z,99.99
2022-12-12T08:57:41.156Z,99.99
2022-12-12T08:58:41.158Z,99.99
2022-12-12T08:59:41.126Z,99.99
2022-12-12T09:00:41.127Z,99.99
2022-12-12T09:01:41.469Z,99.99
2022-12-12T09:02:41.213Z,99.99
2022-12-12T09:03:41.088Z,99.99
2022-12-12T09:04:41.065Z,99.99
2022-12-12T09:05:41.274Z,99.99
2022-12-12T09:06:41.259Z,99.99
2022-12-12T09:07:41.024Z,99.99
2022-12-12T09:08:41.265Z,99.99
2022-12-12T09:09:41.002Z,99.99
2022-12-12T09:10:41.001Z,99.99
2022-12-12T09:11:41.166Z,99.99
2022-12-12T09:12:42.097Z,99.99
2022-12-12T09:13:40.962Z,99.99
2022-12-12T09:14:40.943Z,99.99
2022-12-12T09:15:40.921Z,99.99
2022-12-12T09:16:41.147Z,99.99
2022-12-12T09:17:40.902Z,99.99
2022-12-12T09:18:46.364Z,99.99
2022-12-12T09:19:41.882Z,99.99
2022-12-12T09:20:40.870Z,99.99
2022-12-12T09:21:41.072Z,99.99
2022-12-12T09:22:40.850Z,99.99
2022-12-12T09:23:41.049Z,99.99
2022-12-12T09:24:40.819Z,99.99
2022-12-12T09:25:42.695Z,99.99
2022-12-12T09:26:41.011Z,99.99
2022-12-12T09:27:40.788Z,99.99
2022-12-12T09:28:40.769Z,99.99
2022-12-12T09:29:40.758Z,99.99
2022-12-12T09:30:40.762Z,99.99
2022-12-12T09:31:40.851Z,99.99
2022-12-12T09:32:40.729Z,99.99
2022-12-12T09:33:40.707Z,99.99
2022-12-12T09:34:40.697Z,99.99
2022-12-12T09:35:40.678Z,99.99
2022-12-12T09:36:40.877Z,99.99
2022-12-12T09:37:40.661Z,99.99
2022-12-12T09:38:40.654Z,99.99
2022-12-12T09:39:40.859Z,99.99
2022-12-12T09:40:40.625Z,99.99
2022-12-12T09:41:40.614Z,99.99
2022-12-12T09:42:40.905Z,99.99
2022-12-12T09:43:40.595Z,99.99
2022-12-12T09:44:40.803Z,99.99
2022-12-12T09:45:40.562Z,99.99
2022-12-12T09:46:40.554Z,99.99
2022-12-12T09:47:40.726Z,99.99
2022-12-12T09:48:40.528Z,99.99
2022-12-12T09:49:43.727Z,99.99
2022-12-12T09:50:40.492Z,99.99
2022-12-12T09:51:40.482Z,99.99
2022-12-12T09:52:40.501Z,99.99
2022-12-12T09:53:40.481Z,99.99
2022-12-12T09:54:40.441Z,99.99
2022-12-12T09:55:40.460Z,99.99
2022-12-12T09:56:40.422Z,99.99
2022-12-12T09:57:40.414Z,99.99
2022-12-12T09:58:45.094Z,99.99
2022-12-12T09:59:41.390Z,99.99
2022-12-12T10:00:40.473Z,99.99
2022-12-12T10:01:40.654Z,99.99
2022-12-12T10:02:40.344Z,99.99
2022-12-12T10:03:40.589Z,99.99
2022-12-12T10:04:40.360Z,99.99
2022-12-12T10:05:40.319Z,99.99
2022-12-12T10:06:40.289Z,99.99
2022-12-12T10:07:40.500Z,99.99
2022-12-12T10:08:40.279Z,99.99
2022-12-12T10:09:40.481Z,99.91
2022-12-12T10:10:40.256Z,99.65
2022-12-12T10:11:40.237Z,99.55
2022-12-12T10:12:40.228Z,99.44
2022-12-12T10:13:40.217Z,99.24
2022-12-12T10:14:40.436Z,99.13
2022-12-12T10:15:40.186Z,99.13
2022-12-12T10:16:40.270Z,99.02
2022-12-12T10:17:40.169Z,98.88
2022-12-12T10:18:40.145Z,98.67
2022-12-12T10:19:40.377Z,98.46
2022-12-12T10:20:40.344Z,98.14
2022-12-12T10:21:40.105Z,97.94
2022-12-12T10:22:40.103Z,97.83
2022-12-12T10:23:40.134Z,97.72
2022-12-12T10:24:40.304Z,97.62
2022-12-12T10:25:40.063Z,97.41
2022-12-12T10:26:40.051Z,97.20
2022-12-12T10:27:40.035Z,97.00
2022-12-12T10:28:40.049Z,96.78
2022-12-12T10:29:41.697Z,96.47
2022-12-12T10:30:40.009Z,96.26
2022-12-12T10:31:40.323Z,96.16
2022-12-12T10:32:39.982Z,96.05
2022-12-12T10:33:39.961Z,96.01
2022-12-12T10:34:39.976Z,96.11
2022-12-12T10:35:40.171Z,96.22
2022-12-12T10:36:39.932Z,96.33
2022-12-12T10:37:39.910Z,96.33
2022-12-12T10:38:39.901Z,96.33
2022-12-12T10:39:39.890Z,96.11
2022-12-12T10:40:40.101Z,96.01
2022-12-12T10:41:40.081Z,95.90
2022-12-12T10:42:39.848Z,95.80
2022-12-12T10:43:39.839Z,95.80
2022-12-12T10:44:42.946Z,95.59
2022-12-12T10:45:40.847Z,95.49
2022-12-12T10:46:39.921Z,95.28
2022-12-12T10:47:39.829Z,95.28
2022-12-12T10:48:39.808Z,95.07
2022-12-12T10:49:39.767Z,94.76
2022-12-12T10:50:40.006Z,94.65
2022-12-12T10:51:39.735Z,94.76
2022-12-12T10:52:39.745Z,94.86
2022-12-12T10:53:39.747Z,94.86
2022-12-12T10:54:39.704Z,95.07
2022-12-12T10:55:39.918Z,95.07
2022-12-12T10:56:39.895Z,95.13
2022-12-12T10:57:39.673Z,95.23
2022-12-12T10:58:39.671Z,95.34
2022-12-12T10:59:39.666Z,95.34
2022-12-12T11:00:39.641Z,94.82
2022-12-12T11:02:09.511Z,94.61
2022-12-12T11:02:40.811Z,94.29
2022-12-12T11:03:39.628Z,94.29
2022-12-12T11:04:39.581Z,94.15
2022-12-12T11:05:39.632Z,94.04
2022-12-12T11:06:39.612Z,94.15
2022-12-12T11:07:39.864Z,94.15
2022-12-12T11:08:39.670Z,94.15
2022-12-12T11:09:39.581Z,93.94
2022-12-12T11:10:39.502Z,93.90
2022-12-12T11:11:39.720Z,93.69
2022-12-12T11:12:39.480Z,93.37
2022-12-12T11:13:39.471Z,93.02
2022-12-12T11:14:39.464Z,92.71
2022-12-12T11:15:39.440Z,92.25
2022-12-12T11:16:39.768Z,91.89
2022-12-12T11:17:39.650Z,91.43
2022-12-12T11:18:39.409Z,90.66
2022-12-12T11:19:39.501Z,88.92
2022-12-12T11:20:39.382Z,87.59
2022-12-12T11:21:39.597Z,86.43
2022-12-12T11:22:39.354Z,84.42
2022-12-12T11:23:39.356Z,80.71
2022-12-12T11:24:39.338Z,79.23
2022-12-12T11:25:39.316Z,78.99
2022-12-12T11:26:39.306Z,77.81
2022-12-12T11:27:39.546Z,76.84
2022-12-12T11:28:39.290Z,75.26
2022-12-12T11:29:39.265Z,73.16
2022-12-12T11:30:39.260Z,72.30
2022-12-12T11:31:39.256Z,69.99
2022-12-12T11:32:39.435Z,67.96
2022-12-12T11:33:39.221Z,69.61
2022-12-12T11:34:39.222Z,70.61
2022-12-12T11:35:45.545Z,69.37
2022-12-12T11:36:40.173Z,68.34
2022-12-12T11:37:39.463Z,69.44
2022-12-12T11:38:39.153Z,69.00
2022-12-12T11:39:39.135Z,68.69
2022-12-12T11:40:39.162Z,68.35
2022-12-12T11:41:39.120Z,68.52
2022-12-12T11:42:39.351Z,65.25
2022-12-12T11:43:39.093Z,66.60
2022-12-12T11:44:39.081Z,65.80
2022-12-12T11:45:39.115Z,66.24
2022-12-12T11:46:39.054Z,68.03
2022-12-12T11:47:39.274Z,67.75
2022-12-12T11:48:39.030Z,68.40
2022-12-12T11:49:39.019Z,68.64
2022-12-12T11:50:39.001Z,68.98
2022-12-12T11:51:38.988Z,69.01
2022-12-12T11:52:39.190Z,70.50
2022-12-12T11:53:38.961Z,71.15
2022-12-12T11:54:38.959Z,71.28
2022-12-12T11:55:38.929Z,71.70
2022-12-12T11:56:38.929Z,73.70
2022-12-12T11:57:38.947Z,74.84
2022-12-12T11:58:38.911Z,75.15
2022-12-12T11:59:38.880Z,74.77
2022-12-12T12:00:38.872Z,73.57
2022-12-12T12:01:38.851Z,74.50
2022-12-12T12:02:39.040Z,75.57
2022-12-12T12:03:38.852Z,75.98
2022-12-12T12:04:38.862Z,76.61
2022-12-12T12:05:38.809Z,77.58
2022-12-12T12:06:38.811Z,78.27
2022-12-12T12:07:38.990Z,78.47
2022-12-12T12:08:38.882Z,77.89
2022-12-12T12:09:38.754Z,77.99
2022-12-12T12:10:38.749Z,78.20
2022-12-12T12:11:38.738Z,78.09
2022-12-12T12:12:38.725Z,77.89
2022-12-12T12:13:38.924Z,77.37
2022-12-12T12:14:38.704Z,78.13
2022-12-12T12:15:38.720Z,78.44
2022-12-12T12:16:38.695Z,78.34
2022-12-12T12:17:38.667Z,78.75
2022-12-12T12:18:38.634Z,77.92
2022-12-12T12:19:38.824Z,78.13
2022-12-12T12:20:38.624Z,78.44
2022-12-12T12:21:38.602Z,78.75
2022-12-12T12:22:38.603Z,78.69
2022-12-12T12:23:42.478Z,78.89
2022-12-12T12:24:39.615Z,78.69
2022-12-12T12:25:38.558Z,79.21
2022-12-12T12:26:38.544Z,79.62
2022-12-12T12:27:38.534Z,79.21
2022-12-12T12:28:38.542Z,78.89
2022-12-12T12:29:38.692Z,79.41
2022-12-12T12:30:38.506Z,79.62
2022-12-12T12:31:38.471Z,80.04
2022-12-12T12:32:38.681Z,80.66
2022-12-12T12:33:38.441Z,81.08
2022-12-12T12:34:38.442Z,80.29
2022-12-12T12:35:38.421Z,80.18
2022-12-12T12:36:38.636Z,80.18
2022-12-12T12:37:38.392Z,80.29
2022-12-12T12:38:38.392Z,80.29
2022-12-12T12:39:38.377Z,79.97
2022-12-12T12:40:38.419Z,79.55
2022-12-12T12:41:38.370Z,79.24
2022-12-12T12:42:38.340Z,79.35
2022-12-12T12:43:38.348Z,79.45
2022-12-12T12:44:38.308Z,79.45
2022-12-12T12:45:38.498Z,80.49
2022-12-12T12:46:38.300Z,80.18
2022-12-12T12:47:38.278Z,79.69
2022-12-12T12:48:38.257Z,80.32
2022-12-12T12:49:38.300Z,81.36
2022-12-12T12:50:38.449Z,81.36
2022-12-12T12:51:38.223Z,80.94
2022-12-12T12:52:38.415Z,80.84